createdAt,value
2023-03-13T00:02:35.274Z,7.80
2023-03-13T00:06:52.380Z,7.80
2023-03-13T00:11:12.316Z,7.80
2023-03-13T00:15:29.464Z,7.80
2023-03-13T00:19:46.518Z,7.80
2023-03-13T00:24:04.509Z,7.80
2023-03-13T00:28:21.576Z,7.80
2023-03-13T00:32:46.221Z,7.70
2023-03-13T00:37:03.344Z,7.70
2023-03-13T00:41:23.661Z,7.60
2023-03-13T00:45:40.728Z,7.70
2023-03-13T00:49:57.824Z,7.70
2023-03-13T00:54:14.946Z,7.60
2023-03-13T00:58:34.925Z,7.60
2023-03-13T01:02:52.177Z,7.60
2023-03-13T01:07:09.312Z,7.60
2023-03-13T01:11:28.431Z,7.60
2023-03-13T01:15:45.521Z,7.50
2023-03-13T01:20:02.721Z,7.50
2023-03-13T01:24:20.253Z,7.40
2023-03-13T01:28:37.447Z,7.30
2023-03-13T01:32:54.537Z,7.20
2023-03-13T01:37:11.704Z,7.20
2023-03-13T01:41:30.316Z,7.30
2023-03-13T01:46:01.231Z,7.30
2023-03-13T01:50:18.400Z,7.40
2023-03-13T01:54:45.964Z,7.40
2023-03-13T01:59:04.722Z,7.40
2023-03-13T02:03:22.676Z,7.40
2023-03-13T02:07:50.707Z,7.40
2023-03-13T02:12:11.607Z,7.40
2023-03-13T02:16:29.316Z,7.40
2023-03-13T02:20:48.409Z,7.50
2023-03-13T02:25:23.363Z,7.60
2023-03-13T02:29:41.624Z,7.60
2023-03-13T02:34:01.911Z,7.60
2023-03-13T02:38:23.849Z,7.70
2023-03-13T02:42:43.390Z,7.60
2023-03-13T02:47:00.489Z,7.60
2023-03-13T02:51:31.254Z,7.60
2023-03-13T02:55:48.553Z,7.70
2023-03-13T03:00:12.430Z,7.70
2023-03-13T03:04:29.545Z,7.70
2023-03-13T03:08:46.986Z,7.80
2023-03-13T03:13:04.742Z,7.80
2023-03-13T03:17:21.910Z,7.90
2023-03-13T03:21:39.320Z,7.90
2023-03-13T03:25:56.375Z,7.90
2023-03-13T03:30:13.710Z,7.90
2023-03-13T03:34:30.860Z,7.90
2023-03-13T03:38:48.421Z,7.90
2023-03-13T03:43:05.526Z,7.90
2023-03-13T03:47:22.752Z,8.00
2023-03-13T03:51:40.303Z,8.00
2023-03-13T03:55:57.475Z,8.00
2023-03-13T04:00:16.097Z,8.10
2023-03-13T04:04:33.160Z,8.10
2023-03-13T04:08:50.239Z,8.10
2023-03-13T04:13:07.311Z,8.10
2023-03-13T04:17:24.417Z,8.30
2023-03-13T04:21:41.646Z,8.40
2023-03-13T04:25:58.709Z,8.30
2023-03-13T04:30:18.274Z,8.30
2023-03-13T04:34:35.824Z,8.40
2023-03-13T04:38:53.023Z,8.60
2023-03-13T04:43:10.295Z,8.60
2023-03-13T04:47:27.398Z,8.50
2023-03-13T04:51:45.285Z,8.60
2023-03-13T04:56:02.373Z,8.70
2023-03-13T05:00:19.707Z,8.70
2023-03-13T05:04:36.920Z,8.80
2023-03-13T05:08:54.002Z,8.80
2023-03-13T05:13:11.073Z,8.80
2023-03-13T05:17:28.176Z,8.80
2023-03-13T05:21:45.241Z,8.80
2023-03-13T05:26:02.527Z,9.00
2023-03-13T05:30:19.862Z,9.00
2023-03-13T05:34:36.942Z,9.00
2023-03-13T05:38:54.059Z,9.10
2023-03-13T05:43:11.124Z,9.20
2023-03-13T05:47:28.249Z,9.30
2023-03-13T05:51:45.317Z,9.30
2023-03-13T05:56:02.645Z,9.30
2023-03-13T06:00:19.991Z,9.30
2023-03-13T06:04:37.151Z,9.20
2023-03-13T06:08:54.284Z,9.20
2023-03-13T06:13:19.737Z,9.00
2023-03-13T06:17:37.408Z,9.00
2023-03-13T06:21:54.455Z,9.00
2023-03-13T06:26:12.079Z,9.00
2023-03-13T06:30:29.169Z,8.90
2023-03-13T06:34:46.228Z,8.90
2023-03-13T06:39:03.572Z,9.10
2023-03-13T06:43:21.301Z,9.10
2023-03-13T06:47:38.362Z,9.50
2023-03-13T06:51:58.699Z,9.60
2023-03-13T06:56:15.830Z,9.60
2023-03-13T07:00:34.239Z,9.80
2023-03-13T07:04:51.402Z,10.00
2023-03-13T07:09:08.837Z,10.20
2023-03-13T07:13:26.157Z,10.20
2023-03-13T07:17:43.320Z,10.30
2023-03-13T07:22:00.489Z,10.30
2023-03-13T07:26:17.688Z,10.30
2023-03-13T07:30:34.807Z,10.40
2023-03-13T07:34:51.914Z,10.40
2023-03-13T07:39:09.332Z,10.30
2023-03-13T07:43:27.194Z,10.30
2023-03-13T07:47:44.285Z,10.40
2023-03-13T07:52:01.349Z,10.40
2023-03-13T07:56:23.594Z,10.50
2023-03-13T08:00:40.649Z,10.60
2023-03-13T08:04:59.016Z,10.50
2023-03-13T08:09:16.504Z,10.70
2023-03-13T08:13:34.503Z,10.60
2023-03-13T08:17:52.877Z,10.70
2023-03-13T08:22:10.086Z,10.80
2023-03-13T08:26:29.369Z,10.80
2023-03-13T08:30:46.512Z,10.70
2023-03-13T08:35:04.402Z,10.60
2023-03-13T08:39:21.614Z,10.60
2023-03-13T08:43:38.709Z,10.80
2023-03-13T08:47:55.799Z,10.90
2023-03-13T08:52:12.952Z,10.90
2023-03-13T08:56:31.238Z,10.90
2023-03-13T09:00:48.343Z,11.00
2023-03-13T09:05:05.892Z,11.00
2023-03-13T09:09:24.661Z,11.00
2023-03-13T09:13:44.320Z,11.00
2023-03-13T09:18:01.473Z,11.10
2023-03-13T09:22:18.577Z,11.40
2023-03-13T09:26:35.687Z,11.90
2023-03-13T09:30:54.105Z,12.00
2023-03-13T09:35:11.262Z,12.10
2023-03-13T09:39:28.415Z,12.20
2023-03-13T09:43:54.834Z,12.20
2023-03-13T09:48:33.976Z,12.30
2023-03-13T09:52:56.610Z,12.40
2023-03-13T09:57:35.921Z,12.60
2023-03-13T10:01:55.268Z,12.70
2023-03-13T10:06:18.888Z,12.60
2023-03-13T10:11:04.181Z,12.40
2023-03-13T10:15:48.676Z,12.60
2023-03-13T10:20:25.249Z,12.50
2023-03-13T10:24:50.522Z,12.60
2023-03-13T10:29:27.832Z,12.70
2023-03-13T10:33:45.126Z,13.00
2023-03-13T10:38:11.396Z,12.80
2023-03-13T10:42:33.592Z,12.80
2023-03-13T10:46:51.551Z,12.80
2023-03-13T10:51:22.766Z,12.90
2023-03-13T10:55:44.173Z,12.90
2023-03-13T11:00:42.524Z,12.80
2023-03-13T11:04:59.891Z,12.70
2023-03-13T11:09:18.498Z,12.70
2023-03-13T11:13:43.747Z,12.50
2023-03-13T11:18:15.725Z,12.50
2023-03-13T11:22:57.341Z,12.50
2023-03-13T11:27:30.585Z,12.50
2023-03-13T11:31:56.690Z,12.50
2023-03-13T11:36:37.475Z,12.60
2023-03-13T11:41:09.356Z,12.80
2023-03-13T11:46:15.075Z,13.00
2023-03-13T11:51:00.911Z,13.60
2023-03-13T11:55:52.416Z,15.00
2023-03-13T12:00:36.692Z,15.20
2023-03-13T12:05:19.788Z,14.70
2023-03-13T12:10:09.804Z,14.30
2023-03-13T12:14:48.456Z,14.30
2023-03-13T12:19:05.681Z,14.40
2023-03-13T12:23:33.211Z,15.00
2023-03-13T12:28:04.756Z,15.80
2023-03-13T12:32:33.025Z,16.30
2023-03-13T12:37:02.050Z,16.50
2023-03-13T12:41:21.104Z,15.80
2023-03-13T12:45:51.540Z,15.90
2023-03-13T12:50:09.016Z,16.20
2023-03-13T12:55:08.406Z,15.80
2023-03-13T12:59:49.799Z,15.40
2023-03-13T13:04:16.089Z,15.50
2023-03-13T13:08:38.235Z,15.20
2023-03-13T13:13:14.091Z,15.40
2023-03-13T13:17:43.462Z,15.20
2023-03-13T13:22:19.188Z,15.60
2023-03-13T13:26:47.514Z,15.70
2023-03-13T13:31:43.417Z,15.80
2023-03-13T13:36:09.701Z,15.60
2023-03-13T13:40:29.376Z,15.40
2023-03-13T13:45:14.932Z,14.90
2023-03-13T13:49:34.840Z,14.80
2023-03-13T13:54:00.861Z,14.90
2023-03-13T13:58:23.623Z,15.10
2023-03-13T14:02:52.145Z,15.00
2023-03-13T14:07:30.583Z,14.90
2023-03-13T14:11:47.832Z,15.20
2023-03-13T14:16:24.754Z,15.60
2023-03-13T14:21:04.540Z,15.40
2023-03-13T14:25:22.628Z,15.00
2023-03-13T14:29:39.678Z,14.70
2023-03-13T14:33:58.643Z,14.80
2023-03-13T14:38:16.895Z,14.70
2023-03-13T14:42:45.594Z,14.60
2023-03-13T14:47:09.017Z,14.50
2023-03-13T14:51:28.137Z,14.60
2023-03-13T14:55:45.644Z,14.70
2023-03-13T15:00:31.382Z,14.80
2023-03-13T15:05:01.048Z,14.70
2023-03-13T15:09:23.821Z,14.80
2023-03-13T15:13:40.892Z,14.60
2023-03-13T15:17:58.002Z,14.50
2023-03-13T15:22:17.040Z,14.60
2023-03-13T15:26:34.109Z,14.70
2023-03-13T15:30:51.960Z,14.90
2023-03-13T15:35:30.799Z,14.70
2023-03-13T15:39:48.031Z,14.60
2023-03-13T15:44:05.317Z,14.50
2023-03-13T15:48:28.073Z,14.70
2023-03-13T15:52:45.738Z,14.70
2023-03-13T15:57:03.340Z,14.80
2023-03-13T16:01:22.320Z,14.90
2023-03-13T16:05:39.531Z,15.00
2023-03-13T16:09:56.652Z,15.00
2023-03-13T16:14:13.797Z,14.90
2023-03-13T16:18:30.891Z,14.90
2023-03-13T16:22:48.051Z,14.80
2023-03-13T16:27:31.321Z,14.80
2023-03-13T16:31:48.445Z,14.70
2023-03-13T16:36:14.054Z,14.70
2023-03-13T16:40:33.276Z,14.60
2023-03-13T16:44:50.534Z,14.40
2023-03-13T16:49:11.651Z,14.30
2023-03-13T16:53:28.900Z,14.00
2023-03-13T16:57:46.044Z,13.70
2023-03-13T17:02:03.154Z,13.70
2023-03-13T17:06:26.408Z,13.80
2023-03-13T17:10:43.706Z,13.90
2023-03-13T17:15:00.789Z,13.90
2023-03-13T17:19:18.422Z,13.90
2023-03-13T17:23:35.483Z,13.70
2023-03-13T17:27:53.129Z,13.60
2023-03-13T17:32:14.865Z,13.50
2023-03-13T17:36:32.427Z,13.30
2023-03-13T17:40:49.529Z,13.50
2023-03-13T17:45:07.178Z,13.50
2023-03-13T17:49:24.804Z,13.70
2023-03-13T17:53:42.020Z,13.70
2023-03-13T17:57:59.093Z,13.80
2023-03-13T18:02:17.514Z,14.00
2023-03-13T18:06:42.360Z,14.00
2023-03-13T18:10:59.596Z,14.10
2023-03-13T18:15:17.458Z,14.20
2023-03-13T18:19:34.663Z,14.20
2023-03-13T18:23:53.433Z,14.30
2023-03-13T18:28:11.926Z,14.20
2023-03-13T18:32:28.981Z,14.20
2023-03-13T18:36:46.089Z,14.00
2023-03-13T18:41:03.288Z,10.70
2023-03-13T18:45:23.325Z,9.80
2023-03-13T18:49:40.415Z,9.70
2023-03-13T18:53:58.403Z,9.50
2023-03-13T18:58:15.617Z,9.40
2023-03-13T19:02:32.793Z,9.30
2023-03-13T19:06:50.266Z,9.10
2023-03-13T19:11:07.415Z,9.20
2023-03-13T19:15:28.532Z,9.60
2023-03-13T19:19:45.621Z,9.80
2023-03-13T19:24:02.790Z,9.90
2023-03-13T19:28:20.154Z,9.90
2023-03-13T19:32:37.658Z,10.00
2023-03-13T19:36:54.779Z,10.10
2023-03-13T19:41:13.888Z,10.20
2023-03-13T19:45:30.957Z,10.00
2023-03-13T19:49:50.880Z,10.00
2023-03-13T19:54:10.661Z,10.00
2023-03-13T19:58:27.748Z,9.90
2023-03-13T20:02:44.937Z,9.80
2023-03-13T20:07:02.364Z,9.90
2023-03-13T20:11:19.470Z,9.90
2023-03-13T20:15:36.688Z,10.10
2023-03-13T20:19:53.831Z,10.20
2023-03-13T20:24:11.155Z,10.20
2023-03-13T20:28:28.251Z,10.20
2023-03-13T20:32:57.086Z,10.30
2023-03-13T20:37:16.152Z,10.30
2023-03-13T20:41:33.323Z,10.30
2023-03-13T20:45:51.014Z,10.30
2023-03-13T20:50:08.923Z,10.50
2023-03-13T20:54:26.065Z,10.60
2023-03-13T20:58:43.162Z,10.70
2023-03-13T21:03:02.397Z,10.80
2023-03-13T21:07:21.021Z,10.80
2023-03-13T21:11:38.187Z,10.90
2023-03-13T21:16:02.578Z,10.70
2023-03-13T21:20:19.706Z,10.70
2023-03-13T21:24:36.839Z,10.80
2023-03-13T21:28:53.970Z,10.60
2023-03-13T21:33:11.882Z,10.70
2023-03-13T21:37:29.133Z,10.70
2023-03-13T21:41:46.200Z,10.60
2023-03-13T21:46:04.010Z,10.60
2023-03-13T21:50:21.675Z,10.60
2023-03-13T21:54:38.737Z,10.60
2023-03-13T21:58:56.829Z,10.70
2023-03-13T22:03:15.111Z,10.80
2023-03-13T22:07:32.240Z,10.80
2023-03-13T22:11:49.381Z,10.80
2023-03-13T22:16:07.056Z,10.70
2023-03-13T22:20:24.499Z,10.60
2023-03-13T22:24:41.601Z,10.60
2023-03-13T22:28:58.772Z,10.60
2023-03-13T22:33:16.037Z,10.50
2023-03-13T22:37:33.114Z,10.50
2023-03-13T22:41:50.500Z,10.60
2023-03-13T22:46:07.707Z,10.50
2023-03-13T22:50:25.922Z,10.60
2023-03-13T22:54:43.160Z,10.60
2023-03-13T22:59:00.245Z,10.50
2023-03-13T23:03:18.754Z,10.50
2023-03-13T23:07:40.309Z,10.50
2023-03-13T23:11:57.464Z,10.70
2023-03-13T23:16:14.836Z,10.60
2023-03-13T23:20:32.168Z,10.60
2023-03-13T23:24:49.326Z,10.40
2023-03-13T23:29:06.445Z,10.90
2023-03-13T23:33:23.500Z,10.70
2023-03-13T23:37:40.829Z,10.50
2023-03-13T23:41:58.022Z,10.50
2023-03-13T23:46:23.377Z,10.30
2023-03-13T23:50:40.914Z,10.40
2023-03-13T23:54:58.040Z,10.30
2023-03-13T23:59:15.114Z,10.30
